createdAt,value
2018-04-22T00:00:01.975Z,18.1
2018-04-22T00:00:51.749Z,18.1
2018-04-22T00:01:42.063Z,18.1
2018-04-22T00:02:31.011Z,18
2018-04-22T00:03:21.896Z,18.1
2018-04-22T00:04:12.002Z,18.1
2018-04-22T00:05:02.569Z,18
2018-04-22T00:05:52.670Z,18
2018-04-22T00:06:41.612Z,18.1
2018-04-22T00:07:31.460Z,18
2018-04-22T00:08:22.845Z,18
2018-04-22T00:09:12.371Z,18.1
2018-04-22T00:10:02.810Z,18
2018-04-22T00:10:52.472Z,18
2018-04-22T00:11:42.249Z,18.1
2018-04-22T00:12:32.658Z,18
2018-04-22T00:13:22.464Z,18.1
2018-04-22T00:14:13.430Z,18
2018-04-22T00:15:03.083Z,18
2018-04-22T00:15:52.366Z,18.1
2018-04-22T00:16:42.637Z,18
2018-04-22T00:17:32.956Z,18
2018-04-22T00:18:23.037Z,18
2018-04-22T00:19:13.715Z,18
2018-04-22T00:20:03.741Z,18
2018-04-22T00:20:53.252Z,18
2018-04-22T00:21:43.565Z,18
2018-04-22T00:22:33.381Z,18
2018-04-22T00:23:22.529Z,18
2018-04-22T00:24:13.196Z,18
2018-04-22T00:25:03.371Z,18
2018-04-22T00:25:53.105Z,18
2018-04-22T00:26:43.208Z,18
2018-04-22T00:27:33.533Z,18
2018-04-22T00:28:23.904Z,18
2018-04-22T00:29:13.392Z,18
2018-04-22T00:30:03.026Z,18
2018-04-22T00:30:53.748Z,18
2018-04-22T00:31:43.293Z,18
2018-04-22T00:32:33.685Z,18
2018-04-22T00:33:23.489Z,18
2018-04-22T00:34:14.239Z,18
2018-04-22T00:35:03.834Z,17.9
2018-04-22T00:35:53.855Z,18
2018-04-22T00:36:44.721Z,18
2018-04-22T00:37:34.277Z,18
2018-04-22T00:38:24.004Z,18
2018-04-22T00:39:15.197Z,18
2018-04-22T00:40:04.686Z,17.9
2018-04-22T00:40:54.503Z,17.9
2018-04-22T00:41:44.806Z,18
2018-04-22T00:42:34.606Z,17.9
2018-04-22T00:43:25.243Z,17.9
2018-04-22T00:44:14.731Z,17.9
2018-04-22T00:45:04.916Z,17.9
2018-04-22T00:45:54.968Z,17.9
2018-04-22T00:46:45.743Z,17.9
2018-04-22T00:47:33.949Z,17.9
2018-04-22T00:48:25.387Z,17.9
2018-04-22T00:49:15.451Z,17.9
2018-04-22T00:50:04.974Z,17.9
2018-04-22T00:50:55.346Z,17.9
2018-04-22T00:51:45.121Z,17.9
2018-04-22T00:52:34.913Z,17.9
2018-04-22T00:53:25.468Z,17.9
2018-04-22T00:54:15.240Z,17.9
2018-04-22T00:55:05.064Z,17.9
2018-04-22T00:55:55.725Z,17.9
2018-04-22T00:56:45.458Z,17.9
2018-04-22T00:57:35.551Z,17.9
2018-04-22T00:58:25.031Z,17.9
2018-04-22T00:59:15.662Z,17.9
2018-04-22T01:00:04.938Z,17.9
2018-04-22T01:00:55.754Z,17.9
2018-04-22T01:01:45.314Z,17.9
2018-04-22T01:02:35.620Z,17.9
2018-04-22T01:03:26.283Z,17.9
2018-04-22T01:04:16.106Z,17.9
2018-04-22T01:05:06.158Z,17.9
2018-04-22T01:05:55.933Z,17.9
2018-04-22T01:06:45.933Z,17.9
2018-04-22T01:07:36.028Z,17.9
2018-04-22T01:08:25.503Z,17.9
2018-04-22T01:09:15.343Z,17.9
2018-04-22T01:10:06.806Z,17.9
2018-04-22T01:10:56.316Z,17.9
2018-04-22T01:11:47.435Z,17.9
2018-04-22T01:12:37.490Z,17.9
2018-04-22T01:13:27.451Z,17.9
2018-04-22T01:14:17.622Z,17.9
2018-04-22T01:15:06.891Z,17.9
2018-04-22T01:15:56.951Z,17.9
2018-04-22T01:16:47.632Z,17.9
2018-04-22T01:17:37.288Z,17.9
2018-04-22T01:18:27.418Z,17.9
2018-04-22T01:19:17.451Z,17.9
2018-04-22T01:20:06.996Z,17.9
2018-04-22T01:20:57.892Z,17.9
2018-04-22T01:21:46.541Z,17.9
2018-04-22T01:22:38.230Z,17.9
2018-04-22T01:23:28.054Z,17.9
2018-04-22T01:24:17.587Z,17.9
2018-04-22T01:25:07.045Z,17.9
2018-04-22T01:25:58.193Z,17.9
2018-04-22T01:26:47.987Z,17.9
2018-04-22T01:27:37.799Z,17.9
2018-04-22T01:28:28.398Z,17.9
2018-04-22T01:29:18.448Z,17.9
2018-04-22T01:30:07.947Z,17.9
2018-04-22T01:30:59.123Z,17.9
2018-04-22T01:31:49.180Z,17.9
2018-04-22T01:32:38.152Z,17.9
2018-04-22T01:33:27.959Z,17.9
2018-04-22T01:34:19.123Z,17.9
2018-04-22T01:35:09.421Z,17.9
2018-04-22T01:35:59.248Z,17.9
2018-04-22T01:36:48.471Z,17.9
2018-04-22T01:37:38.483Z,17.9
2018-04-22T01:38:29.371Z,17.9
2018-04-22T01:39:19.579Z,17.9
2018-04-22T01:40:09.838Z,17.9
2018-04-22T01:40:59.307Z,17.9
2018-04-22T01:41:49.142Z,17.9
2018-04-22T01:42:38.316Z,17.9
2018-04-22T01:43:29.498Z,17.9
2018-04-22T01:44:19.568Z,17.9
2018-04-22T01:45:09.685Z,17.9
2018-04-22T01:45:59.663Z,17.8
2018-04-22T01:46:50.040Z,17.8
2018-04-22T01:47:40.375Z,17.9
2018-04-22T01:48:30.190Z,17.9
2018-04-22T01:49:20.500Z,17.9
2018-04-22T01:50:10.016Z,17.8
2018-04-22T01:51:00.108Z,17.9
2018-04-22T01:51:50.428Z,17.9
2018-04-22T01:52:39.670Z,17.9
2018-04-22T01:53:29.427Z,17.9
2018-04-22T01:54:20.378Z,17.9
2018-04-22T01:55:10.443Z,17.8
2018-04-22T01:56:00.278Z,17.8
2018-04-22T01:56:50.798Z,17.8
2018-04-22T01:57:40.951Z,17.8
2018-04-22T01:58:30.710Z,17.9
2018-04-22T01:59:20.447Z,17.8
2018-04-22T02:00:10.649Z,17.9
2018-04-22T02:01:00.330Z,17.8
2018-04-22T02:01:49.555Z,17.8
2018-04-22T02:02:41.027Z,17.8
2018-04-22T02:03:31.048Z,17.8
2018-04-22T02:04:20.027Z,17.9
2018-04-22T02:05:11.823Z,17.8
2018-04-22T02:06:00.722Z,17.8
2018-04-22T02:06:50.755Z,17.8
2018-04-22T02:07:41.404Z,17.8
2018-04-22T02:08:31.576Z,17.8
2018-04-22T02:09:20.659Z,17.8
2018-04-22T02:10:11.576Z,17.8
2018-04-22T02:11:00.793Z,17.8
2018-04-22T02:11:51.465Z,17.8
2018-04-22T02:12:40.717Z,17.8
2018-04-22T02:13:30.809Z,17.8
2018-04-22T02:14:21.100Z,17.8
2018-04-22T02:15:12.264Z,17.8
2018-04-22T02:16:02.081Z,17.8
2018-04-22T02:16:51.773Z,17.8
2018-04-22T02:17:42.131Z,17.8
2018-04-22T02:18:32.764Z,17.8
2018-04-22T02:19:22.786Z,17.8
2018-04-22T02:20:12.020Z,17.8
2018-04-22T02:21:02.633Z,17.8
2018-04-22T02:21:51.892Z,17.8
2018-04-22T02:22:42.801Z,17.8
2018-04-22T02:23:33.087Z,17.8
2018-04-22T02:24:22.371Z,17.8
2018-04-22T02:25:12.373Z,17.8
2018-04-22T02:26:03.060Z,17.8
2018-04-22T02:26:53.196Z,17.8
2018-04-22T02:27:43.180Z,17.8
2018-04-22T02:28:32.135Z,17.8
2018-04-22T02:29:22.727Z,17.8
2018-04-22T02:30:12.841Z,17.8
2018-04-22T02:31:03.183Z,17.8
2018-04-22T02:31:53.234Z,17.8
2018-04-22T02:32:43.330Z,17.8
2018-04-22T02:33:33.939Z,17.8
2018-04-22T02:34:23.196Z,17.8
2018-04-22T02:35:13.220Z,17.8
2018-04-22T02:36:03.541Z,17.8
2018-04-22T02:36:53.833Z,17.8
2018-04-22T02:37:43.157Z,17.8
2018-04-22T02:38:33.785Z,17.8
2018-04-22T02:39:24.107Z,17.8
2018-04-22T02:40:14.312Z,17.8
2018-04-22T02:41:04.043Z,17.8
2018-04-22T02:41:53.474Z,17.8
2018-04-22T02:42:44.112Z,17.8
2018-04-22T02:43:34.004Z,17.8
2018-04-22T02:44:23.631Z,17.8
2018-04-22T02:45:13.671Z,17.8
2018-04-22T02:46:03.758Z,17.8
2018-04-22T02:46:54.721Z,17.8
2018-04-22T02:47:43.863Z,17.8
2018-04-22T02:48:33.371Z,17.8
2018-04-22T02:49:24.811Z,17.8
2018-04-22T02:50:14.303Z,17.8
2018-04-22T02:51:04.730Z,17.8
2018-04-22T02:51:54.543Z,17.8
2018-04-22T02:52:44.530Z,17.8
2018-04-22T02:53:33.481Z,17.8
2018-04-22T02:54:24.971Z,17.8
2018-04-22T02:55:15.272Z,17.8
2018-04-22T02:56:04.507Z,17.8
2018-04-22T02:56:54.607Z,17.8
2018-04-22T02:57:44.916Z,17.8
2018-04-22T02:58:34.389Z,17.8
2018-04-22T02:59:25.833Z,17.8
2018-04-22T03:00:15.651Z,17.8
2018-04-22T03:01:05.143Z,17.8
2018-04-22T03:01:54.781Z,17.7
2018-04-22T03:02:44.441Z,17.8
2018-04-22T03:03:35.314Z,17.7
2018-04-22T03:04:25.702Z,17.7
2018-04-22T03:05:15.425Z,17.7
2018-04-22T03:06:05.585Z,17.7
2018-04-22T03:06:55.905Z,17.7
2018-04-22T03:07:45.129Z,17.8
2018-04-22T03:08:35.734Z,17.8
2018-04-22T03:09:25.829Z,17.7
2018-04-22T03:10:15.627Z,17.8
2018-04-22T03:11:05.592Z,17.7
2018-04-22T03:11:56.494Z,17.7
2018-04-22T03:12:46.595Z,17.7
2018-04-22T03:13:36.096Z,17.7
2018-04-22T03:14:26.723Z,17.7
2018-04-22T03:15:16.765Z,17.7
2018-04-22T03:16:06.282Z,17.7
2018-04-22T03:16:56.364Z,17.7
2018-04-22T03:17:46.424Z,17.7
2018-04-22T03:18:37.044Z,17.7
2018-04-22T03:19:27.045Z,17.7
2018-04-22T03:20:16.870Z,17.7
2018-04-22T03:21:06.372Z,17.7
2018-04-22T03:21:55.898Z,17.7
2018-04-22T03:22:45.985Z,17.7
2018-04-22T03:23:35.406Z,17.7
2018-04-22T03:24:27.761Z,17.7
2018-04-22T03:25:32.490Z,17.7
2018-04-22T03:26:06.452Z,17.7
2018-04-22T03:26:57.759Z,17.6
2018-04-22T03:27:46.617Z,17.7
2018-04-22T03:28:37.490Z,17.7
2018-04-22T03:29:26.768Z,17.7
2018-04-22T03:30:17.659Z,17.7
2018-04-22T03:31:08.025Z,17.7
2018-04-22T03:31:57.514Z,17.7
2018-04-22T03:32:48.164Z,17.7
2018-04-22T03:33:38.181Z,17.7
2018-04-22T03:34:27.641Z,17.6
2018-04-22T03:35:18.052Z,17.6
2018-04-22T03:36:08.342Z,17.6
2018-04-22T03:36:58.702Z,17.6
2018-04-22T03:37:47.887Z,17.6
2018-04-22T03:38:38.245Z,17.6
2018-04-22T03:39:28.335Z,17.6
2018-04-22T03:40:18.323Z,17.6
2018-04-22T03:41:08.708Z,17.6
2018-04-22T03:41:58.801Z,17.6
2018-04-22T03:42:48.003Z,17.6
2018-04-22T03:43:39.252Z,17.6
2018-04-22T03:44:28.688Z,17.6
2018-04-22T03:45:19.000Z,17.6
2018-04-22T03:46:08.855Z,17.6
2018-04-22T03:46:58.876Z,17.6
2018-04-22T03:47:48.069Z,17.6
2018-04-22T03:48:38.975Z,17.6
2018-04-22T03:49:29.630Z,17.6
2018-04-22T03:50:19.110Z,17.6
2018-04-22T03:51:08.909Z,17.6
2018-04-22T03:51:59.840Z,17.6
2018-04-22T03:52:48.510Z,17.6
2018-04-22T03:53:39.196Z,17.6
2018-04-22T03:54:29.548Z,17.6
2018-04-22T03:55:19.244Z,17.6
2018-04-22T03:56:09.900Z,17.6
2018-04-22T03:56:59.623Z,17.6
2018-04-22T03:57:49.668Z,17.6
2018-04-22T03:58:39.485Z,17.6
2018-04-22T03:59:29.535Z,17.6
2018-04-22T04:00:20.174Z,17.6
2018-04-22T04:01:09.655Z,17.6
2018-04-22T04:01:59.536Z,17.6
2018-04-22T04:02:49.782Z,17.6
2018-04-22T04:03:39.832Z,17.6
2018-04-22T04:04:29.978Z,17.6
2018-04-22T04:05:20.386Z,17.6
2018-04-22T04:06:10.615Z,17.6
2018-04-22T04:07:00.227Z,17.6
2018-04-22T04:07:50.539Z,17.6
2018-04-22T04:08:40.637Z,17.6
2018-04-22T04:09:30.017Z,17.6
2018-04-22T04:10:20.145Z,17.6
2018-04-22T04:11:10.216Z,17.6
2018-04-22T04:12:00.628Z,17.6
2018-04-22T04:12:50.924Z,17.6
2018-04-22T04:13:40.958Z,17.6
2018-04-22T04:14:30.764Z,17.6
2018-04-22T04:15:20.782Z,17.6
2018-04-22T04:16:10.871Z,17.6
2018-04-22T04:17:01.274Z,17.6
2018-04-22T04:17:50.764Z,17.6
2018-04-22T04:18:41.067Z,17.6
2018-04-22T04:19:30.974Z,17.6
2018-04-22T04:20:20.657Z,17.6
2018-04-22T04:21:11.295Z,17.6
2018-04-22T04:22:00.820Z,17.6
2018-04-22T04:22:51.669Z,17.6
2018-04-22T04:23:40.638Z,17.6
2018-04-22T04:24:31.491Z,17.6
2018-04-22T04:25:20.776Z,17.6
2018-04-22T04:26:11.393Z,17.6
2018-04-22T04:27:01.157Z,17.6
2018-04-22T04:27:51.310Z,17.6
2018-04-22T04:28:41.614Z,17.6
2018-04-22T04:29:31.714Z,17.6
2018-04-22T04:30:21.168Z,17.6
2018-04-22T04:31:12.079Z,17.6
2018-04-22T04:32:01.521Z,17.6
2018-04-22T04:32:52.408Z,17.6
2018-04-22T04:33:41.921Z,17.5
2018-04-22T04:34:32.331Z,17.6
2018-04-22T04:35:22.308Z,17.6
2018-04-22T04:36:12.767Z,17.6
2018-04-22T04:37:01.687Z,17.6
2018-04-22T04:37:51.736Z,17.5
2018-04-22T04:38:42.877Z,17.6
2018-04-22T04:39:32.864Z,17.6
2018-04-22T04:40:23.216Z,17.5
2018-04-22T04:41:12.742Z,17.6
2018-04-22T04:42:02.206Z,17.5
2018-04-22T04:42:53.192Z,17.6
2018-04-22T04:43:43.013Z,17.5
2018-04-22T04:44:33.291Z,17.5
2018-04-22T04:45:23.012Z,17.5
2018-04-22T04:46:12.765Z,17.5
2018-04-22T04:47:03.264Z,17.5
2018-04-22T04:47:53.549Z,17.5
2018-04-22T04:48:43.085Z,17.5
2018-04-22T04:49:32.675Z,17.5
2018-04-22T04:50:23.292Z,17.5
2018-04-22T04:51:13.835Z,17.5
2018-04-22T04:52:03.371Z,17.5
2018-04-22T04:52:53.158Z,17.5
2018-04-22T04:53:43.453Z,17.5
2018-04-22T04:54:33.773Z,17.5
2018-04-22T04:55:24.682Z,17.5
2018-04-22T04:56:13.986Z,17.5
2018-04-22T04:57:04.252Z,17.5
2018-04-22T04:57:54.245Z,17.4
2018-04-22T04:58:44.324Z,17.5
2018-04-22T04:59:34.943Z,17.5
2018-04-22T05:00:23.872Z,17.5
2018-04-22T05:01:14.825Z,17.5
2018-04-22T05:02:04.376Z,17.5
2018-04-22T05:02:54.949Z,17.4
2018-04-22T05:03:44.697Z,17.5
2018-04-22T05:04:33.962Z,17.4
2018-04-22T05:05:25.129Z,17.4
2018-04-22T05:06:14.958Z,17.5
2018-04-22T05:07:05.559Z,17.5
2018-04-22T05:07:55.026Z,17.5
2018-04-22T05:08:44.799Z,17.5
2018-04-22T05:09:35.681Z,17.4
2018-04-22T05:10:24.705Z,17.4
2018-04-22T05:11:15.888Z,17.4
2018-04-22T05:12:05.375Z,17.4
2018-04-22T05:12:55.415Z,17.4
2018-04-22T05:13:45.180Z,17.4
2018-04-22T05:14:35.858Z,17.4
2018-04-22T05:15:25.547Z,17.4
2018-04-22T05:16:15.323Z,17.4
2018-04-22T05:17:05.462Z,17.4
2018-04-22T05:17:56.074Z,17.4
2018-04-22T05:18:46.788Z,17.4
2018-04-22T05:19:36.499Z,17.4
2018-04-22T05:20:25.396Z,17.4
2018-04-22T05:21:15.216Z,17.4
2018-04-22T05:22:06.390Z,17.4
2018-04-22T05:22:55.867Z,17.4
2018-04-22T05:23:46.487Z,17.4
2018-04-22T05:24:36.025Z,17.4
2018-04-22T05:25:26.628Z,17.4
2018-04-22T05:26:16.447Z,17.4
2018-04-22T05:27:06.839Z,17.4
2018-04-22T05:27:56.515Z,17.4
2018-04-22T05:28:46.896Z,17.4
2018-04-22T05:29:37.202Z,17.4
2018-04-22T05:30:26.708Z,17.4
2018-04-22T05:31:17.998Z,17.4
2018-04-22T05:32:06.643Z,17.4
2018-04-22T05:32:56.647Z,17.4
2018-04-22T05:33:47.276Z,17.4
2018-04-22T05:34:37.307Z,17.4
2018-04-22T05:35:27.153Z,17.3
2018-04-22T05:36:17.140Z,17.3
2018-04-22T05:37:07.302Z,17.3
2018-04-22T05:37:57.045Z,17.3
2018-04-22T05:38:47.387Z,17.3
2018-04-22T05:39:37.216Z,17.3
2018-04-22T05:40:27.504Z,17.3
2018-04-22T05:41:17.019Z,17.3
2018-04-22T05:42:07.669Z,17.3
2018-04-22T05:42:58.186Z,17.3
2018-04-22T05:43:47.026Z,17.3
2018-04-22T05:44:37.291Z,17.3
2018-04-22T05:45:27.643Z,17.3
2018-04-22T05:46:17.680Z,17.3
2018-04-22T05:47:08.065Z,17.3
2018-04-22T05:47:58.614Z,17.3
2018-04-22T05:48:48.670Z,17.3
2018-04-22T05:49:38.827Z,17.3
2018-04-22T05:50:27.784Z,17.3
2018-04-22T05:51:17.558Z,17.3
2018-04-22T05:52:08.103Z,17.3
2018-04-22T05:52:58.699Z,17.3
2018-04-22T05:53:48.283Z,17.3
2018-04-22T05:54:38.368Z,17.3
2018-04-22T05:55:28.580Z,17.3
2018-04-22T05:56:18.261Z,17.3
2018-04-22T05:57:07.994Z,17.3
2018-04-22T05:57:58.079Z,17.3
2018-04-22T05:58:48.582Z,17.3
2018-04-22T05:59:38.233Z,17.3
2018-04-22T06:00:27.971Z,17.3
2018-04-22T06:01:18.309Z,17.3
2018-04-22T06:02:08.152Z,17.2
2018-04-22T06:03:00.037Z,17.2
2018-04-22T06:03:48.968Z,17.2
2018-04-22T06:04:38.819Z,17.2
2018-04-22T06:05:29.688Z,17.2
2018-04-22T06:06:19.462Z,17.2
2018-04-22T06:07:08.984Z,17.2
2018-04-22T06:07:58.859Z,17.2
2018-04-22T06:08:49.846Z,17.2
2018-04-22T06:09:38.696Z,17.2
2018-04-22T06:10:28.715Z,17.2
2018-04-22T06:11:19.366Z,17.2
2018-04-22T06:12:09.389Z,17.2
2018-04-22T06:13:00.486Z,17.2
2018-04-22T06:13:50.006Z,17.2
2018-04-22T06:14:40.441Z,17.2
2018-04-22T06:15:30.493Z,17.2
2018-04-22T06:16:20.472Z,17.2
2018-04-22T06:17:09.176Z,17.2
2018-04-22T06:17:59.311Z,17.2
2018-04-22T06:18:50.139Z,17.2
2018-04-22T06:19:40.183Z,17.2
2018-04-22T06:20:30.546Z,17.2
2018-04-22T06:21:20.324Z,17.2
2018-04-22T06:22:09.926Z,17.2
2018-04-22T06:23:00.894Z,17.1
2018-04-22T06:23:50.472Z,17.2
2018-04-22T06:24:40.304Z,17.2
2018-04-22T06:25:30.356Z,17.2
2018-04-22T06:26:19.828Z,17.1
2018-04-22T06:27:10.181Z,17.2
2018-04-22T06:28:00.805Z,17.2
2018-04-22T06:28:50.582Z,17.2
2018-04-22T06:29:41.517Z,17.1
2018-04-22T06:30:31.859Z,17.1
2018-04-22T06:31:21.340Z,17.1
2018-04-22T06:32:11.739Z,17.2
2018-04-22T06:32:59.323Z,17.1
2018-04-22T06:33:51.243Z,17.2
2018-04-22T06:34:40.498Z,17.2
2018-04-22T06:35:30.882Z,17.2
2018-04-22T06:36:21.304Z,17.1
2018-04-22T06:37:11.338Z,17.2
2018-04-22T06:38:02.151Z,17.1
2018-04-22T06:38:51.926Z,17.2
2018-04-22T06:39:41.137Z,17.1
2018-04-22T06:40:31.488Z,17.1
2018-04-22T06:41:21.325Z,17.1
2018-04-22T06:42:11.068Z,17.1
2018-04-22T06:43:01.700Z,17.1
2018-04-22T06:43:51.538Z,17.1
2018-04-22T06:44:42.395Z,17.1
2018-04-22T06:45:32.740Z,17.1
2018-04-22T06:46:21.965Z,17.1
2018-04-22T06:47:12.839Z,17.1
2018-04-22T06:48:02.083Z,17.1
2018-04-22T06:48:52.417Z,17.1
2018-04-22T06:49:42.492Z,17.1
2018-04-22T06:50:32.805Z,17.1
2018-04-22T06:51:22.336Z,17.1
2018-04-22T06:52:12.380Z,17.1
2018-04-22T06:53:03.303Z,17.1
2018-04-22T06:53:53.040Z,17.1
2018-04-22T06:54:43.079Z,17.1
2018-04-22T06:55:33.485Z,17.1
2018-04-22T06:56:23.095Z,17.1
2018-04-22T06:57:13.890Z,17.1
2018-04-22T06:58:03.430Z,17.1
2018-04-22T06:58:53.419Z,17.1
2018-04-22T06:59:43.789Z,17.1
2018-04-22T07:00:33.577Z,17.1
2018-04-22T07:01:23.371Z,17.1
2018-04-22T07:02:12.553Z,17.1
2018-04-22T07:03:02.644Z,17.1
2018-04-22T07:03:53.252Z,17.1
2018-04-22T07:04:44.486Z,17.1
2018-04-22T07:05:33.107Z,17.1
2018-04-22T07:06:24.072Z,17.1
2018-04-22T07:07:13.249Z,17.1
2018-04-22T07:08:03.650Z,17.1
2018-04-22T07:08:54.507Z,17.1
2018-04-22T07:09:44.015Z,17.1
2018-04-22T07:10:34.097Z,17.1
2018-04-22T07:11:24.118Z,17.1
2018-04-22T07:12:14.519Z,17.1
2018-04-22T07:13:04.138Z,17.1
2018-04-22T07:13:53.546Z,17.1
2018-04-22T07:14:44.800Z,17.1
2018-04-22T07:15:35.054Z,17.1
2018-04-22T07:16:25.403Z,17.1
2018-04-22T07:17:14.373Z,17.1
2018-04-22T07:18:05.203Z,17.1
2018-04-22T07:18:54.486Z,17.1
2018-04-22T07:19:45.734Z,17.1
2018-04-22T07:20:35.500Z,17.1
2018-04-22T07:21:25.307Z,17.1
2018-04-22T07:22:15.565Z,17.1
2018-04-22T07:23:05.857Z,17.1
2018-04-22T07:23:55.442Z,17.1
2018-04-22T07:24:44.841Z,17.1
2018-04-22T07:25:35.749Z,17.1
2018-04-22T07:26:25.553Z,17.1
2018-04-22T07:27:15.405Z,17.1
2018-04-22T07:28:06.304Z,17.1
2018-04-22T07:28:55.464Z,17.1
2018-04-22T07:29:45.543Z,17.1
2018-04-22T07:30:35.171Z,17.1
2018-04-22T07:31:24.255Z,17.1
2018-04-22T07:32:14.560Z,17.1
2018-04-22T07:33:05.794Z,17.1
2018-04-22T07:33:54.465Z,17.1
2018-04-22T07:34:45.500Z,17.1
2018-04-22T07:35:34.280Z,17.1
2018-04-22T07:36:24.420Z,17.1
2018-04-22T07:37:15.016Z,17.1
2018-04-22T07:38:05.190Z,17.1
2018-04-22T07:38:55.440Z,17.1
2018-04-22T07:39:44.589Z,17.1
2018-04-22T07:40:35.582Z,17.1
2018-04-22T07:41:26.238Z,17.1
2018-04-22T07:42:16.249Z,17.1
2018-04-22T07:43:06.339Z,17.1
2018-04-22T07:43:55.654Z,17.1
2018-04-22T07:44:46.196Z,17.1
2018-04-22T07:45:36.501Z,17.1
2018-04-22T07:46:26.225Z,17.1
2018-04-22T07:47:15.847Z,17.1
2018-04-22T07:48:05.848Z,17.1
2018-04-22T07:48:55.872Z,17.1
2018-04-22T07:49:46.588Z,17.1
2018-04-22T07:50:36.687Z,17.1
2018-04-22T07:51:26.708Z,17.1
2018-04-22T07:52:17.606Z,17.1
2018-04-22T07:53:06.889Z,17.1
2018-04-22T07:53:55.991Z,17.1
2018-04-22T07:54:47.309Z,17.1
2018-04-22T07:55:37.568Z,17.1
2018-04-22T07:56:27.037Z,17.1
2018-04-22T07:57:17.630Z,17.1
2018-04-22T07:58:07.744Z,17.1
2018-04-22T07:58:56.535Z,17.1
2018-04-22T07:59:47.897Z,17.1
2018-04-22T08:00:36.852Z,17.1
2018-04-22T08:01:28.026Z,17.1
2018-04-22T08:02:16.885Z,17.1
2018-04-22T08:03:08.642Z,17.1
2018-04-22T08:03:57.931Z,17.1
2018-04-22T08:04:48.766Z,17.1
2018-04-22T08:05:38.311Z,17.1
2018-04-22T08:06:28.357Z,17.1
2018-04-22T08:07:19.269Z,17.1
2018-04-22T08:08:09.111Z,17.1
2018-04-22T08:08:58.850Z,17.1
2018-04-22T08:09:49.159Z,17.1
2018-04-22T08:10:38.669Z,17.1
2018-04-22T08:11:29.362Z,17.2
2018-04-22T08:12:19.351Z,17.1
2018-04-22T08:13:09.694Z,17.1
2018-04-22T08:13:58.741Z,17.1
2018-04-22T08:14:49.272Z,17.1
2018-04-22T08:15:39.393Z,17.1
2018-04-22T08:16:29.488Z,17.1
2018-04-22T08:17:20.042Z,17.1
2018-04-22T08:18:08.971Z,17.1
2018-04-22T08:18:59.575Z,17.1
2018-04-22T08:19:48.668Z,17.1
2018-04-22T08:20:39.188Z,17.1
2018-04-22T08:21:29.793Z,17.1
2018-04-22T08:22:20.188Z,17.1
2018-04-22T08:23:09.362Z,17.1
2018-04-22T08:23:59.993Z,17.1
2018-04-22T08:24:50.301Z,17.1
2018-04-22T08:25:40.407Z,17.1
2018-04-22T08:26:29.928Z,17.1
2018-04-22T08:27:20.830Z,17.1
2018-04-22T08:28:09.559Z,17.1
2018-04-22T08:28:59.966Z,17.1
2018-04-22T08:29:50.499Z,17.1
2018-04-22T08:30:40.293Z,17.1
2018-04-22T08:31:30.177Z,17.1
2018-04-22T08:32:20.425Z,17.2
2018-04-22T08:33:08.905Z,17.1
2018-04-22T08:34:01.382Z,17.1
2018-04-22T08:34:49.768Z,17.2
2018-04-22T08:35:40.176Z,17.1
2018-04-22T08:36:30.252Z,17.1
2018-04-22T08:37:20.824Z,17.1
2018-04-22T08:38:10.831Z,17.1
2018-04-22T08:39:01.425Z,17.1
2018-04-22T08:39:50.988Z,17.1
2018-04-22T08:40:40.710Z,17.1
2018-04-22T08:41:30.611Z,17.1
2018-04-22T08:42:20.384Z,17.1
2018-04-22T08:43:11.653Z,17.1
2018-04-22T08:44:02.320Z,17.2
2018-04-22T08:44:51.893Z,17.2
2018-04-22T08:45:41.687Z,17.2
2018-04-22T08:46:32.111Z,17.1
2018-04-22T08:47:22.331Z,17.1
2018-04-22T08:48:12.494Z,17.2
2018-04-22T08:49:01.369Z,17.1
2018-04-22T08:49:52.256Z,17.2
2018-04-22T08:50:43.331Z,17.2
2018-04-22T08:51:32.167Z,17.2
2018-04-22T08:52:21.134Z,17.2
2018-04-22T08:53:11.996Z,17.2
2018-04-22T08:54:02.333Z,17.2
2018-04-22T08:54:52.123Z,17.1
2018-04-22T08:55:42.696Z,17.2
2018-04-22T08:56:32.525Z,17.2
2018-04-22T08:57:22.299Z,17.2
2018-04-22T08:58:13.258Z,17.2
2018-04-22T08:59:02.759Z,17.2
2018-04-22T08:59:52.467Z,17.2
2018-04-22T09:00:42.313Z,17.2
2018-04-22T09:01:33.166Z,17.2
2018-04-22T09:02:22.948Z,17.2
2018-04-22T09:03:13.584Z,17.2
2018-04-22T09:04:03.384Z,17.2
2018-04-22T09:04:52.888Z,17.2
2018-04-22T09:05:43.846Z,17.2
2018-04-22T09:06:33.566Z,17.2
2018-04-22T09:07:23.612Z,17.2
2018-04-22T09:08:13.413Z,17.2
2018-04-22T09:09:04.031Z,17.2
2018-04-22T09:09:54.134Z,17.2
2018-04-22T09:10:43.604Z,17.2
2018-04-22T09:11:33.935Z,17.2
2018-04-22T09:12:23.162Z,17.2
2018-04-22T09:13:13.555Z,17.2
2018-04-22T09:14:04.459Z,17.2
2018-04-22T09:14:53.679Z,17.2
2018-04-22T09:15:44.562Z,17.2
2018-04-22T09:16:33.903Z,17.2
2018-04-22T09:17:23.285Z,17.2
2018-04-22T09:18:14.811Z,17.2
2018-04-22T09:19:03.994Z,17.2
2018-04-22T09:19:54.046Z,17.2
2018-04-22T09:20:44.132Z,17.2
2018-04-22T09:21:33.961Z,17.2
2018-04-22T09:22:24.347Z,17.2
2018-04-22T09:23:14.044Z,17.2
2018-04-22T09:24:05.208Z,17.2
2018-04-22T09:24:54.150Z,17.2
2018-04-22T09:25:44.061Z,17.2
2018-04-22T09:26:35.192Z,17.2
2018-04-22T09:27:25.022Z,17.2
2018-04-22T09:28:14.503Z,17.2
2018-04-22T09:29:05.613Z,17.2
2018-04-22T09:29:54.790Z,17.3
2018-04-22T09:30:44.689Z,17.2
2018-04-22T09:31:34.951Z,17.2
2018-04-22T09:32:25.603Z,17.3
2018-04-22T09:33:16.186Z,17.2
2018-04-22T09:34:05.442Z,17.2
2018-04-22T09:34:56.075Z,17.2
2018-04-22T09:35:45.648Z,17.2
2018-04-22T09:36:35.928Z,17.2
2018-04-22T09:37:25.155Z,17.3
2018-04-22T09:38:15.547Z,17.2
2018-04-22T09:39:05.801Z,17.3
2018-04-22T09:39:55.645Z,17.3
2018-04-22T09:40:45.989Z,17.3
2018-04-22T09:41:36.319Z,17.2
2018-04-22T09:42:25.358Z,17.2
2018-04-22T09:43:16.741Z,17.2
2018-04-22T09:44:06.308Z,17.2
2018-04-22T09:44:56.790Z,17.2
2018-04-22T09:45:46.577Z,17.3
2018-04-22T09:46:36.151Z,17.2
2018-04-22T09:47:26.325Z,17.3
2018-04-22T09:48:16.639Z,17.2
2018-04-22T09:49:05.591Z,17.3
2018-04-22T09:49:57.085Z,17.2
2018-04-22T09:50:45.936Z,17.3
2018-04-22T09:51:36.893Z,17.3
2018-04-22T09:52:26.922Z,17.3
2018-04-22T09:53:16.463Z,17.3
2018-04-22T09:54:06.239Z,17.3
2018-04-22T09:54:56.614Z,17.3
2018-04-22T09:55:46.720Z,17.3
2018-04-22T09:56:36.226Z,17.3
2018-04-22T09:57:27.059Z,17.3
2018-04-22T09:58:17.118Z,17.3
2018-04-22T09:59:06.456Z,17.3
2018-04-22T09:59:57.063Z,17.3
2018-04-22T10:00:46.840Z,17.3
2018-04-22T10:01:36.611Z,17.3
2018-04-22T10:02:27.200Z,17.3
2018-04-22T10:03:17.247Z,17.3
2018-04-22T10:04:06.510Z,17.3
2018-04-22T10:04:57.841Z,17.3
2018-04-22T10:05:46.904Z,17.3
2018-04-22T10:06:37.607Z,17.3
2018-04-22T10:07:27.333Z,17.3
2018-04-22T10:08:17.424Z,17.3
2018-04-22T10:09:07.458Z,17.3
2018-04-22T10:09:57.259Z,17.3
2018-04-22T10:10:47.294Z,17.3
2018-04-22T10:11:37.393Z,17.3
2018-04-22T10:12:27.445Z,17.3
2018-04-22T10:13:17.474Z,17.3
2018-04-22T10:14:07.931Z,17.3
2018-04-22T10:14:57.081Z,17.3
2018-04-22T10:15:47.711Z,17.3
2018-04-22T10:16:37.840Z,17.3
2018-04-22T10:17:28.094Z,17.3
2018-04-22T10:18:17.636Z,17.3
2018-04-22T10:19:06.644Z,17.3
2018-04-22T10:19:57.579Z,17.3
2018-04-22T10:20:49.144Z,17.3
2018-04-22T10:21:38.703Z,17.3
2018-04-22T10:22:28.297Z,17.3
2018-04-22T10:23:18.312Z,17.3
2018-04-22T10:24:08.065Z,17.3
2018-04-22T10:24:58.704Z,17.3
2018-04-22T10:25:48.494Z,17.3
2018-04-22T10:26:39.157Z,17.3
2018-04-22T10:27:28.956Z,17.3
2018-04-22T10:28:18.409Z,17.3
2018-04-22T10:29:09.234Z,17.3
2018-04-22T10:29:59.323Z,17.3
2018-04-22T10:30:48.334Z,17.3
2018-04-22T10:31:38.949Z,17.3
2018-04-22T10:32:29.794Z,17.3
2018-04-22T10:33:19.354Z,17.3
2018-04-22T10:34:09.777Z,17.3
2018-04-22T10:34:58.317Z,17.3
2018-04-22T10:35:49.558Z,17.3
2018-04-22T10:36:40.137Z,17.3
2018-04-22T10:37:29.161Z,17.3
2018-04-22T10:38:20.217Z,17.3
2018-04-22T10:39:09.722Z,17.3
2018-04-22T10:39:59.542Z,17.3
2018-04-22T10:40:49.358Z,17.3
2018-04-22T10:41:39.741Z,17.3
2018-04-22T10:42:29.460Z,17.3
2018-04-22T10:43:19.337Z,17.3
2018-04-22T10:44:09.860Z,17.3
2018-04-22T10:44:59.948Z,17.3
2018-04-22T10:45:50.271Z,17.3
2018-04-22T10:46:40.602Z,17.3
2018-04-22T10:47:30.132Z,17.3
2018-04-22T10:48:20.995Z,17.4
2018-04-22T10:49:10.788Z,17.3
2018-04-22T10:50:00.612Z,17.4
2018-04-22T10:50:51.974Z,17.3
2018-04-22T10:51:41.756Z,17.4
2018-04-22T10:52:31.827Z,17.4
2018-04-22T10:53:21.872Z,17.4
2018-04-22T10:54:11.722Z,17.4
2018-04-22T10:55:01.498Z,17.4
2018-04-22T10:55:52.053Z,17.4
2018-04-22T10:56:41.889Z,17.4
2018-04-22T10:57:31.460Z,17.4
2018-04-22T10:58:21.752Z,17.4
2018-04-22T10:59:11.987Z,17.4
2018-04-22T11:00:02.831Z,17.4
2018-04-22T11:00:52.250Z,17.4
2018-04-22T11:01:41.982Z,17.4
2018-04-22T11:02:32.340Z,17.4
2018-04-22T11:03:22.126Z,17.4
2018-04-22T11:04:12.167Z,17.4
2018-04-22T11:05:02.287Z,17.4
2018-04-22T11:05:52.322Z,17.4
2018-04-22T11:06:42.672Z,17.4
2018-04-22T11:07:32.704Z,17.4
2018-04-22T11:08:22.507Z,17.4